sensor_id;sensor_type;location;lat;lon;timestamp;temperature;humidity
22442;DHT22;11388;54.456;9.752;2023-03-01T00:01:58;3.40;99.90
22442;DHT22;11388;54.456;9.752;2023-03-01T00:04:24;3.40;99.90
22442;DHT22;11388;54.456;9.752;2023-03-01T00:06:50;3.10;99.90
22442;DHT22;11388;54.456;9.752;2023-03-01T00:09:16;3.10;99.90
22442;DHT22;11388;54.456;9.752;2023-03-01T00:11:43;3.10;99.90
22442;DHT22;11388;54.456;9.752;2023-03-01T00:14:09;3.10;99.90
22442;DHT22;11388;54.456;9.752;2023-03-01T00:16:40;3.00;99.90
22442;DHT22;11388;54.456;9.752;2023-03-01T00:19:12;2.90;99.90
22442;DHT22;11388;54.456;9.752;2023-03-01T00:21:38;3.00;99.90
22442;DHT22;11388;54.456;9.752;2023-03-01T00:24:04;3.00;99.90
22442;DHT22;11388;54.456;9.752;2023-03-01T00:26:30;3.00;99.90
22442;DHT22;11388;54.456;9.752;2023-03-01T00:28:57;3.10;99.90
22442;DHT22;11388;54.456;9.752;2023-03-01T00:31:25;3.20;99.90
22442;DHT22;11388;54.456;9.752;2023-03-01T00:33:55;3.20;99.90
22442;DHT22;11388;54.456;9.752;2023-03-01T00:36:23;3.20;99.90
22442;DHT22;11388;54.456;9.752;2023-03-01T00:38:49;3.30;99.90
22442;DHT22;11388;54.456;9.752;2023-03-01T00:41:17;3.20;99.90
22442;DHT22;11388;54.456;9.752;2023-03-01T00:43:43;3.10;99.90
22442;DHT22;11388;54.456;9.752;2023-03-01T00:46:13;3.10;99.90
22442;DHT22;11388;54.456;9.752;2023-03-01T00:48:39;3.10;99.90
22442;DHT22;11388;54.456;9.752;2023-03-01T00:53:41;3.10;99.90
22442;DHT22;11388;54.456;9.752;2023-03-01T00:56:09;3.10;99.90
22442;DHT22;11388;54.456;9.752;2023-03-01T00:58:35;3.00;99.90
22442;DHT22;11388;54.456;9.752;2023-03-01T01:01:10;3.00;99.90
22442;DHT22;11388;54.456;9.752;2023-03-01T01:03:46;2.90;99.90
22442;DHT22;11388;54.456;9.752;2023-03-01T01:06:30;2.70;99.90
22442;DHT22;11388;54.456;9.752;2023-03-01T01:08:56;2.80;99.90
22442;DHT22;11388;54.456;9.752;2023-03-01T01:11:23;2.80;99.90
22442;DHT22;11388;54.456;9.752;2023-03-01T01:13:50;2.70;99.90
22442;DHT22;11388;54.456;9.752;2023-03-01T01:16:18;2.70;99.90
22442;DHT22;11388;54.456;9.752;2023-03-01T01:18:44;2.70;99.90
22442;DHT22;11388;54.456;9.752;2023-03-01T01:21:12;2.70;99.90
22442;DHT22;11388;54.456;9.752;2023-03-01T01:23:39;2.80;99.90
22442;DHT22;11388;54.456;9.752;2023-03-01T01:26:18;2.90;99.90
22442;DHT22;11388;54.456;9.752;2023-03-01T01:28:44;2.80;99.90
22442;DHT22;11388;54.456;9.752;2023-03-01T01:31:10;2.90;99.90
22442;DHT22;11388;54.456;9.752;2023-03-01T01:33:36;2.90;99.90
22442;DHT22;11388;54.456;9.752;2023-03-01T01:36:04;2.90;99.90
22442;DHT22;11388;54.456;9.752;2023-03-01T01:38:29;2.70;99.90
22442;DHT22;11388;54.456;9.752;2023-03-01T01:40:55;2.60;99.90
22442;DHT22;11388;54.456;9.752;2023-03-01T01:43:30;2.60;99.90
22442;DHT22;11388;54.456;9.752;2023-03-01T01:46:02;2.60;99.90
22442;DHT22;11388;54.456;9.752;2023-03-01T01:48:39;2.60;99.90
22442;DHT22;11388;54.456;9.752;2023-03-01T01:51:13;2.60;99.90
22442;DHT22;11388;54.456;9.752;2023-03-01T01:53:44;2.70;99.90
22442;DHT22;11388;54.456;9.752;2023-03-01T01:56:12;2.50;99.90
22442;DHT22;11388;54.456;9.752;2023-03-01T01:58:38;2.40;99.90
22442;DHT22;11388;54.456;9.752;2023-03-01T02:01:05;2.40;99.90
22442;DHT22;11388;54.456;9.752;2023-03-01T02:03:32;2.40;99.90
22442;DHT22;11388;54.456;9.752;2023-03-01T02:06:18;2.40;99.90
22442;DHT22;11388;54.456;9.752;2023-03-01T02:08:46;2.50;99.90
22442;DHT22;11388;54.456;9.752;2023-03-01T02:11:12;2.50;99.90
22442;DHT22;11388;54.456;9.752;2023-03-01T02:13:40;2.50;99.90
22442;DHT22;11388;54.456;9.752;2023-03-01T02:16:11;2.60;99.90
22442;DHT22;11388;54.456;9.752;2023-03-01T02:18:39;2.70;99.90
22442;DHT22;11388;54.456;9.752;2023-03-01T02:23:47;2.70;99.90
22442;DHT22;11388;54.456;9.752;2023-03-01T02:26:21;2.50;99.90
22442;DHT22;11388;54.456;9.752;2023-03-01T02:28:50;2.40;99.90
22442;DHT22;11388;54.456;9.752;2023-03-01T02:31:18;2.20;99.90
22442;DHT22;11388;54.456;9.752;2023-03-01T02:34:03;2.10;99.90
22442;DHT22;11388;54.456;9.752;2023-03-01T02:36:38;2.20;99.90
22442;DHT22;11388;54.456;9.752;2023-03-01T02:39:07;2.30;99.90
22442;DHT22;11388;54.456;9.752;2023-03-01T02:41:42;2.30;99.90
22442;DHT22;11388;54.456;9.752;2023-03-01T02:44:08;2.30;99.90
22442;DHT22;11388;54.456;9.752;2023-03-01T02:46:41;2.40;99.90
22442;DHT22;11388;54.456;9.752;2023-03-01T02:49:31;2.50;99.90
22442;DHT22;11388;54.456;9.752;2023-03-01T02:57:31;2.40;99.90
22442;DHT22;11388;54.456;9.752;2023-03-01T03:00:01;2.20;99.90
22442;DHT22;11388;54.456;9.752;2023-03-01T03:02:32;2.20;99.90
22442;DHT22;11388;54.456;9.752;2023-03-01T03:05:07;2.20;99.90
22442;DHT22;11388;54.456;9.752;2023-03-01T03:07:35;2.20;99.90
22442;DHT22;11388;54.456;9.752;2023-03-01T03:10:02;2.20;99.90
22442;DHT22;11388;54.456;9.752;2023-03-01T03:12:28;2.20;99.90
22442;DHT22;11388;54.456;9.752;2023-03-01T03:14:54;2.10;99.90
22442;DHT22;11388;54.456;9.752;2023-03-01T03:17:19;2.20;99.90
22442;DHT22;11388;54.456;9.752;2023-03-01T03:19:45;2.10;99.90
22442;DHT22;11388;54.456;9.752;2023-03-01T03:22:12;2.20;99.90
22442;DHT22;11388;54.456;9.752;2023-03-01T03:24:37;2.30;99.90
22442;DHT22;11388;54.456;9.752;2023-03-01T03:27:04;2.20;99.90
22442;DHT22;11388;54.456;9.752;2023-03-01T03:29:30;2.10;99.90
22442;DHT22;11388;54.456;9.752;2023-03-01T03:31:56;1.90;99.90
22442;DHT22;11388;54.456;9.752;2023-03-01T03:34:21;1.90;99.90
22442;DHT22;11388;54.456;9.752;2023-03-01T03:36:47;1.90;99.90
22442;DHT22;11388;54.456;9.752;2023-03-01T03:39:13;1.90;99.90
22442;DHT22;11388;54.456;9.752;2023-03-01T03:41:38;1.80;99.90
22442;DHT22;11388;54.456;9.752;2023-03-01T03:44:04;1.80;99.90
22442;DHT22;11388;54.456;9.752;2023-03-01T03:46:30;1.90;99.90
22442;DHT22;11388;54.456;9.752;2023-03-01T03:48:55;1.80;99.90
22442;DHT22;11388;54.456;9.752;2023-03-01T03:51:21;1.80;99.90
22442;DHT22;11388;54.456;9.752;2023-03-01T03:53:48;1.80;99.90
22442;DHT22;11388;54.456;9.752;2023-03-01T03:56:14;1.80;99.90
22442;DHT22;11388;54.456;9.752;2023-03-01T03:58:40;1.80;99.90
22442;DHT22;11388;54.456;9.752;2023-03-01T04:01:05;1.70;99.90
22442;DHT22;11388;54.456;9.752;2023-03-01T04:03:32;1.60;99.90
22442;DHT22;11388;54.456;9.752;2023-03-01T04:05:59;1.50;99.90
22442;DHT22;11388;54.456;9.752;2023-03-01T04:08:26;1.50;99.90
22442;DHT22;11388;54.456;9.752;2023-03-01T04:10:57;1.40;99.90
22442;DHT22;11388;54.456;9.752;2023-03-01T04:13:23;1.30;99.90
22442;DHT22;11388;54.456;9.752;2023-03-01T04:15:51;1.30;99.90
22442;DHT22;11388;54.456;9.752;2023-03-01T04:18:19;1.40;99.90
22442;DHT22;11388;54.456;9.752;2023-03-01T04:20:45;1.50;99.90
22442;DHT22;11388;54.456;9.752;2023-03-01T04:23:17;1.40;99.90
22442;DHT22;11388;54.456;9.752;2023-03-01T04:25:47;1.50;99.90
22442;DHT22;11388;54.456;9.752;2023-03-01T04:30:51;1.20;99.90
22442;DHT22;11388;54.456;9.752;2023-03-01T04:33:17;1.20;99.90
22442;DHT22;11388;54.456;9.752;2023-03-01T04:35:43;1.40;99.90
22442;DHT22;11388;54.456;9.752;2023-03-01T04:38:09;1.50;99.90
22442;DHT22;11388;54.456;9.752;2023-03-01T04:40:34;1.40;99.90
22442;DHT22;11388;54.456;9.752;2023-03-01T04:43:00;1.30;99.90
22442;DHT22;11388;54.456;9.752;2023-03-01T04:45:26;1.40;99.90
22442;DHT22;11388;54.456;9.752;2023-03-01T04:47:53;1.50;99.90
22442;DHT22;11388;54.456;9.752;2023-03-01T04:50:19;1.50;99.90
22442;DHT22;11388;54.456;9.752;2023-03-01T04:52:46;1.50;99.90
22442;DHT22;11388;54.456;9.752;2023-03-01T04:55:13;1.50;99.90
22442;DHT22;11388;54.456;9.752;2023-03-01T04:57:39;1.40;99.90
22442;DHT22;11388;54.456;9.752;2023-03-01T05:00:08;1.50;99.90
22442;DHT22;11388;54.456;9.752;2023-03-01T05:02:57;1.50;99.90
22442;DHT22;11388;54.456;9.752;2023-03-01T05:05:29;1.50;99.90
22442;DHT22;11388;54.456;9.752;2023-03-01T05:07:58;1.50;99.90
22442;DHT22;11388;54.456;9.752;2023-03-01T05:10:24;1.40;99.90
22442;DHT22;11388;54.456;9.752;2023-03-01T05:12:50;1.30;99.90
22442;DHT22;11388;54.456;9.752;2023-03-01T05:15:17;1.30;99.90
22442;DHT22;11388;54.456;9.752;2023-03-01T05:17:43;1.20;99.90
22442;DHT22;11388;54.456;9.752;2023-03-01T05:20:09;1.10;99.90
22442;DHT22;11388;54.456;9.752;2023-03-01T05:22:36;1.10;99.90
22442;DHT22;11388;54.456;9.752;2023-03-01T05:25:02;1.10;99.90
22442;DHT22;11388;54.456;9.752;2023-03-01T05:27:28;1.20;99.90
22442;DHT22;11388;54.456;9.752;2023-03-01T05:29:55;1.30;99.90
22442;DHT22;11388;54.456;9.752;2023-03-01T05:32:21;1.20;99.90
22442;DHT22;11388;54.456;9.752;2023-03-01T05:34:47;1.10;99.90
22442;DHT22;11388;54.456;9.752;2023-03-01T05:37:13;0.90;99.90
22442;DHT22;11388;54.456;9.752;2023-03-01T05:39:39;0.90;99.90
22442;DHT22;11388;54.456;9.752;2023-03-01T05:42:05;1.00;99.90
22442;DHT22;11388;54.456;9.752;2023-03-01T05:44:31;1.10;99.90
22442;DHT22;11388;54.456;9.752;2023-03-01T05:46:56;1.10;99.90
22442;DHT22;11388;54.456;9.752;2023-03-01T05:49:23;1.00;99.90
22442;DHT22;11388;54.456;9.752;2023-03-01T05:51:52;1.00;99.90
22442;DHT22;11388;54.456;9.752;2023-03-01T05:54:21;0.80;99.90
22442;DHT22;11388;54.456;9.752;2023-03-01T05:56:47;0.90;99.90
22442;DHT22;11388;54.456;9.752;2023-03-01T05:59:13;0.80;99.90
22442;DHT22;11388;54.456;9.752;2023-03-01T06:01:40;0.90;99.90
22442;DHT22;11388;54.456;9.752;2023-03-01T06:04:06;0.80;99.90
22442;DHT22;11388;54.456;9.752;2023-03-01T06:06:35;0.80;99.90
22442;DHT22;11388;54.456;9.752;2023-03-01T06:09:05;0.90;99.90
22442;DHT22;11388;54.456;9.752;2023-03-01T06:11:34;0.90;99.90
22442;DHT22;11388;54.456;9.752;2023-03-01T06:14:00;0.80;99.90
22442;DHT22;11388;54.456;9.752;2023-03-01T06:16:25;0.80;99.90
22442;DHT22;11388;54.456;9.752;2023-03-01T06:18:51;1.00;99.90
22442;DHT22;11388;54.456;9.752;2023-03-01T06:21:17;0.90;99.90
22442;DHT22;11388;54.456;9.752;2023-03-01T06:23:42;0.90;99.90
22442;DHT22;11388;54.456;9.752;2023-03-01T06:26:08;0.80;99.90
22442;DHT22;11388;54.456;9.752;2023-03-01T06:28:35;0.70;99.90
22442;DHT22;11388;54.456;9.752;2023-03-01T06:31:01;0.70;99.90
22442;DHT22;11388;54.456;9.752;2023-03-01T06:33:27;0.60;99.90
22442;DHT22;11388;54.456;9.752;2023-03-01T06:35:55;0.70;99.90
22442;DHT22;11388;54.456;9.752;2023-03-01T06:38:24;0.70;99.90
22442;DHT22;11388;54.456;9.752;2023-03-01T06:40:54;0.70;99.90
22442;DHT22;11388;54.456;9.752;2023-03-01T06:43:20;0.70;99.90
22442;DHT22;11388;54.456;9.752;2023-03-01T06:45:46;0.70;99.90
22442;DHT22;11388;54.456;9.752;2023-03-01T06:48:12;0.50;99.90
22442;DHT22;11388;54.456;9.752;2023-03-01T06:50:37;0.50;99.90
22442;DHT22;11388;54.456;9.752;2023-03-01T06:53:04;0.50;99.90
22442;DHT22;11388;54.456;9.752;2023-03-01T06:55:30;0.50;99.90
22442;DHT22;11388;54.456;9.752;2023-03-01T06:58:00;0.50;99.90
22442;DHT22;11388;54.456;9.752;2023-03-01T07:00:27;0.30;99.90
22442;DHT22;11388;54.456;9.752;2023-03-01T07:02:53;0.40;99.90
22442;DHT22;11388;54.456;9.752;2023-03-01T07:05:19;0.60;99.90
22442;DHT22;11388;54.456;9.752;2023-03-01T07:07:44;0.60;99.90
22442;DHT22;11388;54.456;9.752;2023-03-01T07:10:11;0.60;99.90
22442;DHT22;11388;54.456;9.752;2023-03-01T07:12:37;0.70;99.90
22442;DHT22;11388;54.456;9.752;2023-03-01T07:15:03;0.50;99.90
22442;DHT22;11388;54.456;9.752;2023-03-01T07:17:29;0.70;99.90
22442;DHT22;11388;54.456;9.752;2023-03-01T07:19:55;0.70;99.90
22442;DHT22;11388;54.456;9.752;2023-03-01T07:22:21;0.70;99.90
22442;DHT22;11388;54.456;9.752;2023-03-01T07:24:47;0.80;99.90
22442;DHT22;11388;54.456;9.752;2023-03-01T07:27:12;0.80;99.90
22442;DHT22;11388;54.456;9.752;2023-03-01T07:29:39;0.90;99.90
22442;DHT22;11388;54.456;9.752;2023-03-01T07:32:05;0.90;99.90
22442;DHT22;11388;54.456;9.752;2023-03-01T07:34:31;1.00;99.90
22442;DHT22;11388;54.456;9.752;2023-03-01T07:36:57;1.10;99.90
22442;DHT22;11388;54.456;9.752;2023-03-01T07:39:23;1.10;99.90
22442;DHT22;11388;54.456;9.752;2023-03-01T07:41:49;1.10;99.90
22442;DHT22;11388;54.456;9.752;2023-03-01T07:44:15;1.00;99.90
22442;DHT22;11388;54.456;9.752;2023-03-01T07:46:41;1.10;99.90
22442;DHT22;11388;54.456;9.752;2023-03-01T07:49:07;1.10;99.90
22442;DHT22;11388;54.456;9.752;2023-03-01T07:51:33;1.10;99.90
22442;DHT22;11388;54.456;9.752;2023-03-01T07:53:58;1.30;99.90
22442;DHT22;11388;54.456;9.752;2023-03-01T07:56:24;1.40;99.90
22442;DHT22;11388;54.456;9.752;2023-03-01T07:58:52;1.40;99.90
22442;DHT22;11388;54.456;9.752;2023-03-01T08:01:22;1.50;99.90
22442;DHT22;11388;54.456;9.752;2023-03-01T08:03:48;1.40;99.90
22442;DHT22;11388;54.456;9.752;2023-03-01T08:06:15;1.50;99.90
22442;DHT22;11388;54.456;9.752;2023-03-01T08:08:41;1.40;99.90
22442;DHT22;11388;54.456;9.752;2023-03-01T08:11:09;1.50;99.90
22442;DHT22;11388;54.456;9.752;2023-03-01T08:13:35;1.50;99.90
22442;DHT22;11388;54.456;9.752;2023-03-01T08:16:12;1.50;99.90
22442;DHT22;11388;54.456;9.752;2023-03-01T08:18:39;1.60;99.90
22442;DHT22;11388;54.456;9.752;2023-03-01T08:21:06;1.50;99.90
22442;DHT22;11388;54.456;9.752;2023-03-01T08:23:32;1.70;99.90
22442;DHT22;11388;54.456;9.752;2023-03-01T08:26:08;1.70;99.90
22442;DHT22;11388;54.456;9.752;2023-03-01T08:28:34;1.70;99.90
22442;DHT22;11388;54.456;9.752;2023-03-01T08:31:00;1.60;99.90
22442;DHT22;11388;54.456;9.752;2023-03-01T08:33:26;1.60;99.90
22442;DHT22;11388;54.456;9.752;2023-03-01T08:35:51;1.40;99.90
22442;DHT22;11388;54.456;9.752;2023-03-01T08:38:17;1.40;99.90
22442;DHT22;11388;54.456;9.752;2023-03-01T08:40:43;1.40;99.90
22442;DHT22;11388;54.456;9.752;2023-03-01T08:43:08;1.70;99.90
22442;DHT22;11388;54.456;9.752;2023-03-01T08:45:34;1.80;99.90
22442;DHT22;11388;54.456;9.752;2023-03-01T08:48:00;1.60;99.90
22442;DHT22;11388;54.456;9.752;2023-03-01T08:50:25;1.80;99.90
22442;DHT22;11388;54.456;9.752;2023-03-01T08:52:51;1.80;99.90
22442;DHT22;11388;54.456;9.752;2023-03-01T08:55:17;2.00;99.90
22442;DHT22;11388;54.456;9.752;2023-03-01T08:57:43;2.00;99.90
22442;DHT22;11388;54.456;9.752;2023-03-01T09:00:10;2.00;99.90
22442;DHT22;11388;54.456;9.752;2023-03-01T09:02:40;2.20;99.90
22442;DHT22;11388;54.456;9.752;2023-03-01T09:05:06;2.00;99.90
22442;DHT22;11388;54.456;9.752;2023-03-01T09:07:31;2.00;99.90
22442;DHT22;11388;54.456;9.752;2023-03-01T09:09:57;2.20;99.90
22442;DHT22;11388;54.456;9.752;2023-03-01T09:12:23;2.40;99.90
22442;DHT22;11388;54.456;9.752;2023-03-01T09:14:50;2.50;99.90
22442;DHT22;11388;54.456;9.752;2023-03-01T09:17:16;2.50;99.90
22442;DHT22;11388;54.456;9.752;2023-03-01T09:19:41;2.50;99.90
22442;DHT22;11388;54.456;9.752;2023-03-01T09:22:07;2.50;99.90
22442;DHT22;11388;54.456;9.752;2023-03-01T09:24:33;2.50;99.90
22442;DHT22;11388;54.456;9.752;2023-03-01T09:26:58;2.30;99.90
22442;DHT22;11388;54.456;9.752;2023-03-01T09:29:24;2.30;99.90
22442;DHT22;11388;54.456;9.752;2023-03-01T09:31:51;2.30;99.90
22442;DHT22;11388;54.456;9.752;2023-03-01T09:34:20;2.30;99.90
22442;DHT22;11388;54.456;9.752;2023-03-01T09:36:49;2.50;99.90
22442;DHT22;11388;54.456;9.752;2023-03-01T09:39:15;2.70;99.90
22442;DHT22;11388;54.456;9.752;2023-03-01T09:42:02;2.80;99.90
22442;DHT22;11388;54.456;9.752;2023-03-01T09:47:11;3.00;99.90
22442;DHT22;11388;54.456;9.752;2023-03-01T09:49:41;3.00;99.90
22442;DHT22;11388;54.456;9.752;2023-03-01T09:54:47;2.80;99.90
22442;DHT22;11388;54.456;9.752;2023-03-01T09:58:06;2.90;99.90
22442;DHT22;11388;54.456;9.752;2023-03-01T10:03:16;2.80;99.90
22442;DHT22;11388;54.456;9.752;2023-03-01T10:10:44;2.70;99.90
22442;DHT22;11388;54.456;9.752;2023-03-01T10:13:21;2.60;99.90
22442;DHT22;11388;54.456;9.752;2023-03-01T10:15:58;2.60;99.90
22442;DHT22;11388;54.456;9.752;2023-03-01T10:18:30;2.50;99.90
22442;DHT22;11388;54.456;9.752;2023-03-01T10:21:05;2.40;99.90
22442;DHT22;11388;54.456;9.752;2023-03-01T10:23:34;2.40;99.90
22442;DHT22;11388;54.456;9.752;2023-03-01T10:26:43;2.50;99.90
22442;DHT22;11388;54.456;9.752;2023-03-01T10:29:12;2.50;99.90
22442;DHT22;11388;54.456;9.752;2023-03-01T10:31:49;2.60;99.90
22442;DHT22;11388;54.456;9.752;2023-03-01T10:34:18;2.70;99.90
22442;DHT22;11388;54.456;9.752;2023-03-01T10:36:47;2.70;99.90
22442;DHT22;11388;54.456;9.752;2023-03-01T10:39:22;2.80;99.90
22442;DHT22;11388;54.456;9.752;2023-03-01T10:42:38;2.70;99.90
22442;DHT22;11388;54.456;9.752;2023-03-01T10:44:48;2.90;99.90
22442;DHT22;11388;54.456;9.752;2023-03-01T10:47:20;2.90;99.90
22442;DHT22;11388;54.456;9.752;2023-03-01T10:52:23;3.30;99.90
22442;DHT22;11388;54.456;9.752;2023-03-01T10:54:58;3.20;99.90
22442;DHT22;11388;54.456;9.752;2023-03-01T10:57:38;3.10;99.90
22442;DHT22;11388;54.456;9.752;2023-03-01T11:00:21;3.20;99.90
22442;DHT22;11388;54.456;9.752;2023-03-01T11:03:08;3.40;99.90
22442;DHT22;11388;54.456;9.752;2023-03-01T11:05:36;3.50;99.90
22442;DHT22;11388;54.456;9.752;2023-03-01T11:08:02;3.50;99.90
22442;DHT22;11388;54.456;9.752;2023-03-01T11:10:34;3.80;99.90
22442;DHT22;11388;54.456;9.752;2023-03-01T11:13:19;3.80;99.90
22442;DHT22;11388;54.456;9.752;2023-03-01T11:16:02;3.80;99.90
22442;DHT22;11388;54.456;9.752;2023-03-01T11:18:30;4.00;99.90
22442;DHT22;11388;54.456;9.752;2023-03-01T11:20:58;3.90;99.90
22442;DHT22;11388;54.456;9.752;2023-03-01T11:23:26;3.90;99.90
22442;DHT22;11388;54.456;9.752;2023-03-01T11:25:58;4.00;99.90
22442;DHT22;11388;54.456;9.752;2023-03-01T11:28:27;3.80;99.90
22442;DHT22;11388;54.456;9.752;2023-03-01T11:38:29;4.00;99.90
22442;DHT22;11388;54.456;9.752;2023-03-01T11:41:02;3.90;99.90
22442;DHT22;11388;54.456;9.752;2023-03-01T11:57:28;4.30;99.90
22442;DHT22;11388;54.456;9.752;2023-03-01T12:04:02;3.90;99.90
22442;DHT22;11388;54.456;9.752;2023-03-01T12:06:24;4.10;99.90
22442;DHT22;11388;54.456;9.752;2023-03-01T12:11:34;4.00;99.90
22442;DHT22;11388;54.456;9.752;2023-03-01T12:14:27;3.90;99.90
22442;DHT22;11388;54.456;9.752;2023-03-01T12:22:30;4.30;99.90
22442;DHT22;11388;54.456;9.752;2023-03-01T12:43:07;4.60;99.90
22442;DHT22;11388;54.456;9.752;2023-03-01T12:48:43;4.60;99.90
22442;DHT22;11388;54.456;9.752;2023-03-01T12:51:19;4.80;99.90
22442;DHT22;11388;54.456;9.752;2023-03-01T12:53:51;5.00;99.90
22442;DHT22;11388;54.456;9.752;2023-03-01T12:56:22;4.90;99.90
22442;DHT22;11388;54.456;9.752;2023-03-01T12:58:55;4.70;99.90
22442;DHT22;11388;54.456;9.752;2023-03-01T13:11:50;5.00;99.90
22442;DHT22;11388;54.456;9.752;2023-03-01T13:16:49;5.20;99.90
22442;DHT22;11388;54.456;9.752;2023-03-01T13:19:23;5.20;99.90
22442;DHT22;11388;54.456;9.752;2023-03-01T13:21:50;5.10;99.90
22442;DHT22;11388;54.456;9.752;2023-03-01T13:24:37;5.30;99.90
22442;DHT22;11388;54.456;9.752;2023-03-01T13:32:27;5.30;99.90
22442;DHT22;11388;54.456;9.752;2023-03-01T13:35:01;5.30;99.90
22442;DHT22;11388;54.456;9.752;2023-03-01T13:37:34;5.30;99.90
22442;DHT22;11388;54.456;9.752;2023-03-01T13:40:04;5.40;99.90
22442;DHT22;11388;54.456;9.752;2023-03-01T13:45:04;5.20;99.90
22442;DHT22;11388;54.456;9.752;2023-03-01T13:47:39;5.30;99.90
22442;DHT22;11388;54.456;9.752;2023-03-01T13:50:06;5.30;99.90
22442;DHT22;11388;54.456;9.752;2023-03-01T13:54:58;5.30;99.90
22442;DHT22;11388;54.456;9.752;2023-03-01T13:57:29;5.40;99.90
22442;DHT22;11388;54.456;9.752;2023-03-01T13:59:55;5.50;99.90
22442;DHT22;11388;54.456;9.752;2023-03-01T14:02:21;5.30;99.90
22442;DHT22;11388;54.456;9.752;2023-03-01T14:04:57;5.20;99.90
22442;DHT22;11388;54.456;9.752;2023-03-01T14:07:23;5.10;99.90
22442;DHT22;11388;54.456;9.752;2023-03-01T14:10:05;5.10;99.90
22442;DHT22;11388;54.456;9.752;2023-03-01T14:12:54;5.10;99.90
22442;DHT22;11388;54.456;9.752;2023-03-01T14:15:29;5.10;99.90
22442;DHT22;11388;54.456;9.752;2023-03-01T14:20:27;5.10;99.90
22442;DHT22;11388;54.456;9.752;2023-03-01T14:22:57;5.20;99.90
22442;DHT22;11388;54.456;9.752;2023-03-01T14:25:31;5.20;99.90
22442;DHT22;11388;54.456;9.752;2023-03-01T14:28:03;5.30;99.90
22442;DHT22;11388;54.456;9.752;2023-03-01T14:30:34;5.10;99.90
22442;DHT22;11388;54.456;9.752;2023-03-01T14:33:03;5.10;99.90
22442;DHT22;11388;54.456;9.752;2023-03-01T14:35:35;5.20;99.90
22442;DHT22;11388;54.456;9.752;2023-03-01T14:38:01;5.10;99.90
22442;DHT22;11388;54.456;9.752;2023-03-01T14:40:30;5.20;99.90
22442;DHT22;11388;54.456;9.752;2023-03-01T14:42:59;5.00;99.90
22442;DHT22;11388;54.456;9.752;2023-03-01T14:45:26;5.10;99.90
22442;DHT22;11388;54.456;9.752;2023-03-01T14:47:55;5.10;99.90
22442;DHT22;11388;54.456;9.752;2023-03-01T14:50:25;5.20;99.90
22442;DHT22;11388;54.456;9.752;2023-03-01T14:52:57;5.20;99.90
22442;DHT22;11388;54.456;9.752;2023-03-01T14:55:37;5.10;99.90
22442;DHT22;11388;54.456;9.752;2023-03-01T14:58:06;5.20;99.90
22442;DHT22;11388;54.456;9.752;2023-03-01T15:00:33;5.10;99.90
22442;DHT22;11388;54.456;9.752;2023-03-01T15:03:11;5.10;99.90
22442;DHT22;11388;54.456;9.752;2023-03-01T15:05:39;5.10;99.90
22442;DHT22;11388;54.456;9.752;2023-03-01T15:08:05;5.20;99.90
22442;DHT22;11388;54.456;9.752;2023-03-01T15:10:34;5.10;99.90
22442;DHT22;11388;54.456;9.752;2023-03-01T15:13:14;5.10;99.90
22442;DHT22;11388;54.456;9.752;2023-03-01T15:15:46;5.10;99.90
22442;DHT22;11388;54.456;9.752;2023-03-01T15:18:18;5.00;99.90
22442;DHT22;11388;54.456;9.752;2023-03-01T15:20:45;5.10;99.90
22442;DHT22;11388;54.456;9.752;2023-03-01T15:23:29;5.10;99.90
22442;DHT22;11388;54.456;9.752;2023-03-01T15:25:56;5.10;99.90
22442;DHT22;11388;54.456;9.752;2023-03-01T15:28:31;5.00;99.90
22442;DHT22;11388;54.456;9.752;2023-03-01T15:31:04;5.00;99.90
22442;DHT22;11388;54.456;9.752;2023-03-01T15:33:34;4.90;99.90
22442;DHT22;11388;54.456;9.752;2023-03-01T15:36:02;5.00;99.90
22442;DHT22;11388;54.456;9.752;2023-03-01T15:38:35;4.80;99.90
22442;DHT22;11388;54.456;9.752;2023-03-01T15:41:21;5.00;99.90
22442;DHT22;11388;54.456;9.752;2023-03-01T15:43:48;4.90;99.90
22442;DHT22;11388;54.456;9.752;2023-03-01T15:46:35;4.90;99.90
22442;DHT22;11388;54.456;9.752;2023-03-01T15:49:27;4.90;99.90
22442;DHT22;11388;54.456;9.752;2023-03-01T15:51:56;4.90;99.90
22442;DHT22;11388;54.456;9.752;2023-03-01T15:54:24;4.80;99.90
22442;DHT22;11388;54.456;9.752;2023-03-01T15:56:50;4.90;99.90
22442;DHT22;11388;54.456;9.752;2023-03-01T15:59:17;4.90;99.90
22442;DHT22;11388;54.456;9.752;2023-03-01T16:01:43;4.90;99.90
22442;DHT22;11388;54.456;9.752;2023-03-01T16:04:13;5.00;99.90
22442;DHT22;11388;54.456;9.752;2023-03-01T16:06:46;4.90;99.90
22442;DHT22;11388;54.456;9.752;2023-03-01T16:09:12;4.90;99.90
22442;DHT22;11388;54.456;9.752;2023-03-01T16:11:38;4.80;99.90
22442;DHT22;11388;54.456;9.752;2023-03-01T16:14:05;4.90;99.90
22442;DHT22;11388;54.456;9.752;2023-03-01T16:16:31;4.90;99.90
22442;DHT22;11388;54.456;9.752;2023-03-01T16:18:57;4.90;99.90
22442;DHT22;11388;54.456;9.752;2023-03-01T16:21:24;4.80;99.90
22442;DHT22;11388;54.456;9.752;2023-03-01T16:23:50;4.70;99.90
22442;DHT22;11388;54.456;9.752;2023-03-01T16:26:16;4.70;99.90
22442;DHT22;11388;54.456;9.752;2023-03-01T16:28:45;4.80;99.90
22442;DHT22;11388;54.456;9.752;2023-03-01T16:31:11;4.60;99.90
22442;DHT22;11388;54.456;9.752;2023-03-01T16:33:39;4.70;99.90
22442;DHT22;11388;54.456;9.752;2023-03-01T16:36:10;4.70;99.90
22442;DHT22;11388;54.456;9.752;2023-03-01T16:38:37;4.60;99.90
22442;DHT22;11388;54.456;9.752;2023-03-01T16:41:04;4.70;99.90
22442;DHT22;11388;54.456;9.752;2023-03-01T16:43:30;4.70;99.90
22442;DHT22;11388;54.456;9.752;2023-03-01T16:45:56;4.80;99.90
22442;DHT22;11388;54.456;9.752;2023-03-01T16:48:22;4.70;99.90
22442;DHT22;11388;54.456;9.752;2023-03-01T16:51:00;4.70;99.90
22442;DHT22;11388;54.456;9.752;2023-03-01T16:53:28;4.70;99.90
22442;DHT22;11388;54.456;9.752;2023-03-01T16:55:57;4.60;99.90
22442;DHT22;11388;54.456;9.752;2023-03-01T16:58:24;4.50;99.90
22442;DHT22;11388;54.456;9.752;2023-03-01T17:00:51;4.50;99.90
22442;DHT22;11388;54.456;9.752;2023-03-01T17:03:22;4.50;99.90
22442;DHT22;11388;54.456;9.752;2023-03-01T17:05:48;4.60;99.90
22442;DHT22;11388;54.456;9.752;2023-03-01T17:08:14;4.70;99.90
22442;DHT22;11388;54.456;9.752;2023-03-01T17:10:40;4.70;99.90
22442;DHT22;11388;54.456;9.752;2023-03-01T17:13:08;4.70;99.90
22442;DHT22;11388;54.456;9.752;2023-03-01T17:15:34;4.60;99.90
22442;DHT22;11388;54.456;9.752;2023-03-01T17:18:01;4.50;99.90
22442;DHT22;11388;54.456;9.752;2023-03-01T17:20:26;4.50;99.90
22442;DHT22;11388;54.456;9.752;2023-03-01T17:22:52;4.50;99.90
22442;DHT22;11388;54.456;9.752;2023-03-01T17:25:18;4.40;99.90
22442;DHT22;11388;54.456;9.752;2023-03-01T17:27:44;4.50;99.90
22442;DHT22;11388;54.456;9.752;2023-03-01T17:30:12;4.50;99.90
22442;DHT22;11388;54.456;9.752;2023-03-01T17:32:38;4.60;99.90
22442;DHT22;11388;54.456;9.752;2023-03-01T17:35:05;4.60;99.90
22442;DHT22;11388;54.456;9.752;2023-03-01T17:37:30;4.60;99.90
22442;DHT22;11388;54.456;9.752;2023-03-01T17:39:56;4.50;99.90
22442;DHT22;11388;54.456;9.752;2023-03-01T17:42:22;4.50;99.90
22442;DHT22;11388;54.456;9.752;2023-03-01T17:44:48;4.50;99.90
22442;DHT22;11388;54.456;9.752;2023-03-01T17:47:13;4.40;99.90